createdAt,value
2023-08-18T00:02:18.066Z,100687.78
2023-08-18T00:04:45.993Z,100682.00
2023-08-18T00:07:14.020Z,100682.00
2023-08-18T00:09:41.765Z,100680.25
2023-08-18T00:12:09.689Z,100672.91
2023-08-18T00:14:37.586Z,100657.72
2023-08-18T00:17:06.109Z,100663.31
2023-08-18T00:19:35.308Z,100678.81
2023-08-18T00:22:03.191Z,100677.94
2023-08-18T00:24:31.017Z,100677.75
2023-08-18T00:26:58.835Z,100675.81
2023-08-18T00:29:26.672Z,100670.97
2023-08-18T00:31:54.489Z,100663.72
2023-08-18T00:34:22.297Z,100666.53
2023-08-18T00:36:51.604Z,100668.47
2023-08-18T00:39:19.584Z,100666.78
2023-08-18T00:41:47.492Z,100669.63
2023-08-18T00:44:15.384Z,100652.88
2023-08-18T00:46:45.353Z,100657.53
2023-08-18T00:49:13.313Z,100664.88
2023-08-18T00:51:43.497Z,100662.19
2023-08-18T00:54:13.964Z,100654.06
2023-08-18T00:56:43.777Z,100654.91
2023-08-18T00:59:12.906Z,100654.72
2023-08-18T01:01:42.887Z,100659.94
2023-08-18T01:04:11.387Z,100656.28
2023-08-18T01:06:40.995Z,100651.81
2023-08-18T01:09:09.443Z,100651.06
2023-08-18T01:11:44.216Z,100650.66
2023-08-18T01:14:22.656Z,100644.47
2023-08-18T01:16:58.228Z,100647.66
2023-08-18T01:19:26.468Z,100644.09
2023-08-18T01:21:55.355Z,100641.25
2023-08-18T01:24:26.278Z,100643.88
2023-08-18T01:26:54.448Z,100642.91
2023-08-18T01:29:24.040Z,100643.69
2023-08-18T01:31:56.120Z,100640.97
2023-08-18T01:34:27.274Z,100639.91
2023-08-18T01:36:58.232Z,100640.03
2023-08-18T01:39:28.725Z,100638.25
2023-08-18T01:41:57.121Z,100633.81
2023-08-18T01:44:24.924Z,100635.75
2023-08-18T01:46:52.790Z,100632.47
2023-08-18T01:49:21.887Z,100624.41
2023-08-18T01:51:50.407Z,100625.69
2023-08-18T01:54:18.209Z,100618.34
2023-08-18T01:56:47.386Z,100625.97
2023-08-18T01:59:16.688Z,100622.56
2023-08-18T02:01:44.586Z,100618.91
2023-08-18T02:04:12.415Z,100613.28
2023-08-18T02:06:41.084Z,100605.16
2023-08-18T02:09:09.655Z,100608.78
2023-08-18T02:11:37.504Z,100613.28
2023-08-18T02:14:06.684Z,100608.44
2023-08-18T02:16:34.558Z,100601.88
2023-08-18T02:19:02.440Z,100602.75
2023-08-18T02:21:32.322Z,100599.56
2023-08-18T02:24:00.227Z,100600.44
2023-08-18T02:26:28.123Z,100594.81
2023-08-18T02:28:55.955Z,100595.31
2023-08-18T02:31:25.124Z,100602.09
2023-08-18T02:33:53.008Z,100596.25
2023-08-18T02:36:20.871Z,100598.97
2023-08-18T02:38:48.702Z,100594.44
2023-08-18T02:41:18.233Z,100599.00
2023-08-18T02:43:48.218Z,100594.53
2023-08-18T02:46:16.299Z,100585.53
2023-08-18T02:48:45.469Z,100601.50
2023-08-18T02:51:13.322Z,100601.13
2023-08-18T02:53:41.150Z,100593.38
2023-08-18T02:56:09.562Z,100584.84
2023-08-18T02:58:39.503Z,100591.81
2023-08-18T03:01:09.180Z,100572.78
2023-08-18T03:03:37.470Z,100582.34
2023-08-18T03:06:07.912Z,100589.31
2023-08-18T03:08:36.867Z,100563.47
2023-08-18T03:11:06.054Z,100574.88
2023-08-18T03:13:34.280Z,100577.59
2023-08-18T03:16:02.397Z,100579.53
2023-08-18T03:18:30.279Z,100567.63
2023-08-18T03:21:02.152Z,100571.28
2023-08-18T03:23:33.002Z,100566.88
2023-08-18T03:26:02.571Z,100550.19
2023-08-18T03:28:31.268Z,100564.16
2023-08-18T03:31:03.364Z,100564.34
2023-08-18T03:33:33.554Z,100561.94
2023-08-18T03:36:04.185Z,100577.13
2023-08-18T03:38:33.419Z,100565.72
2023-08-18T03:41:02.609Z,100577.91
2023-08-18T03:43:31.236Z,100572.66
2023-08-18T03:46:01.228Z,100566.75
2023-08-18T03:48:29.364Z,100573.06
2023-08-18T03:50:59.986Z,100572.06
2023-08-18T03:53:28.064Z,100571.69
2023-08-18T03:56:00.640Z,100574.19
2023-08-18T03:58:28.567Z,100576.44
2023-08-18T04:01:02.905Z,100569.38
2023-08-18T04:03:31.556Z,100565.88
2023-08-18T04:05:59.479Z,100575.84
2023-08-18T04:08:27.642Z,100569.44
2023-08-18T04:10:55.511Z,100577.13
2023-08-18T04:13:25.326Z,100580.69
2023-08-18T04:15:53.745Z,100586.81
2023-08-18T04:18:22.400Z,100575.56
2023-08-18T04:20:50.300Z,100584.28
2023-08-18T04:23:18.916Z,100571.28
2023-08-18T04:25:47.501Z,100568.00
2023-08-18T04:28:15.998Z,100568.59
2023-08-18T04:30:46.801Z,100578.28
2023-08-18T04:33:24.573Z,100571.50
2023-08-18T04:35:52.460Z,100574.56
2023-08-18T04:38:20.323Z,100575.94
2023-08-18T04:40:58.112Z,100568.56
2023-08-18T04:43:27.114Z,100580.38
2023-08-18T04:45:56.783Z,100574.84
2023-08-18T04:48:25.472Z,100576.72
2023-08-18T04:50:53.369Z,100581.00
2023-08-18T04:53:21.891Z,100579.72
2023-08-18T04:55:49.750Z,100570.63
2023-08-18T04:58:17.786Z,100577.28
2023-08-18T05:00:46.489Z,100576.22
2023-08-18T05:03:17.923Z,100577.00
2023-08-18T05:06:00.211Z,100574.19
2023-08-18T05:08:28.723Z,100572.38
2023-08-18T05:10:58.170Z,100577.00
2023-08-18T05:13:26.084Z,100575.94
2023-08-18T05:15:54.208Z,100579.03
2023-08-18T05:18:23.549Z,100577.88
2023-08-18T05:20:51.385Z,100579.41
2023-08-18T05:23:20.158Z,100583.09
2023-08-18T05:25:49.245Z,100579.63
2023-08-18T05:28:17.326Z,100582.53
2023-08-18T05:30:48.571Z,100583.50
2023-08-18T05:33:17.028Z,100578.34
2023-08-18T05:35:46.562Z,100583.00
2023-08-18T05:38:14.504Z,100584.47
2023-08-18T05:40:43.966Z,100587.06
2023-08-18T05:43:12.736Z,100591.13
2023-08-18T05:45:40.709Z,100595.41
2023-08-18T05:48:09.124Z,100579.22
2023-08-18T05:50:37.030Z,100564.44
2023-08-18T05:53:06.886Z,100580.28
2023-08-18T05:55:34.834Z,100583.84
2023-08-18T05:58:03.769Z,100580.59
2023-08-18T06:00:32.660Z,100581.94
2023-08-18T06:03:00.840Z,100581.22
2023-08-18T06:05:29.840Z,100584.72
2023-08-18T06:07:57.922Z,100590.16
2023-08-18T06:10:27.207Z,100585.50
2023-08-18T06:12:55.101Z,100592.25
2023-08-18T06:15:24.565Z,100587.63
2023-08-18T06:17:52.543Z,100599.91
2023-08-18T06:20:20.388Z,100571.88
2023-08-18T06:22:48.219Z,100599.00
2023-08-18T06:25:16.063Z,100604.56
2023-08-18T06:27:45.304Z,100600.69
2023-08-18T06:30:14.031Z,100604.94
2023-08-18T06:32:41.942Z,100597.25
2023-08-18T06:35:10.412Z,100611.13
2023-08-18T06:37:38.357Z,100611.97
2023-08-18T06:40:06.974Z,100616.31
2023-08-18T06:42:34.830Z,100611.88
2023-08-18T06:45:04.837Z,100612.47
2023-08-18T06:47:35.998Z,100620.72
2023-08-18T06:50:07.011Z,100620.72
2023-08-18T06:52:36.505Z,100630.81
2023-08-18T06:55:05.042Z,100626.63
2023-08-18T06:57:34.151Z,100626.97
2023-08-18T07:00:02.188Z,100615.78
2023-08-18T07:02:31.626Z,100622.38
2023-08-18T07:04:59.712Z,100614.75
2023-08-18T07:07:27.706Z,100584.88
2023-08-18T07:09:55.536Z,100616.22
2023-08-18T07:12:23.353Z,100613.38
2023-08-18T07:14:51.215Z,100620.09
2023-08-18T07:17:19.533Z,100605.34
2023-08-18T07:19:48.724Z,100616.53
2023-08-18T07:22:16.538Z,100618.50
2023-08-18T07:24:44.363Z,100613.16
2023-08-18T07:27:12.450Z,100546.38
2023-08-18T07:29:40.490Z,100614.06
2023-08-18T07:32:08.475Z,100614.34
2023-08-18T07:34:36.270Z,100620.56
2023-08-18T07:37:06.956Z,100622.81
2023-08-18T07:39:35.621Z,100621.91
2023-08-18T07:42:03.483Z,100620.16
2023-08-18T07:44:31.358Z,100609.47
2023-08-18T07:46:59.146Z,100618.03
2023-08-18T07:49:27.517Z,100620.13
2023-08-18T07:51:55.359Z,100597.31
2023-08-18T07:54:25.061Z,100623.97
2023-08-18T07:56:53.796Z,100627.13
2023-08-18T07:59:21.681Z,100623.78
2023-08-18T08:01:49.485Z,100623.53
2023-08-18T08:04:17.319Z,100612.56
2023-08-18T08:06:45.167Z,100630.81
2023-08-18T08:09:13.055Z,100628.59
2023-08-18T08:11:42.276Z,100630.09
2023-08-18T08:14:10.327Z,100630.03
2023-08-18T08:16:38.102Z,100631.88
2023-08-18T08:19:06.851Z,100633.88
2023-08-18T08:21:37.469Z,100624.97
2023-08-18T08:24:06.407Z,100616.16
2023-08-18T08:26:34.305Z,100628.91
2023-08-18T08:29:03.755Z,100625.47
2023-08-18T08:31:32.621Z,100622.47
2023-08-18T08:34:00.672Z,100618.50
2023-08-18T08:36:33.897Z,100619.47
2023-08-18T08:39:02.223Z,100618.78
2023-08-18T08:41:30.243Z,100615.91
2023-08-18T08:43:58.099Z,100618.00
2023-08-18T08:46:27.617Z,100617.28
2023-08-18T08:48:58.732Z,100606.97
2023-08-18T08:54:05.359Z,100606.00
2023-08-18T08:56:36.476Z,100592.59
2023-08-18T08:59:04.523Z,100605.63
2023-08-18T09:01:34.042Z,100598.75
2023-08-18T09:04:02.873Z,100597.38
2023-08-18T09:06:30.655Z,100601.91
2023-08-18T09:09:02.997Z,100598.50
2023-08-18T09:11:41.752Z,100591.13
2023-08-18T09:14:09.654Z,100590.91
2023-08-18T09:16:39.519Z,100590.75
2023-08-18T09:19:07.402Z,100586.38
2023-08-18T09:21:35.257Z,100577.00
2023-08-18T09:24:05.336Z,100582.38
2023-08-18T09:26:33.358Z,100583.31
2023-08-18T09:29:01.400Z,100583.03
2023-08-18T09:31:29.382Z,100578.94
2023-08-18T09:33:59.775Z,100574.09
2023-08-18T09:36:27.637Z,100568.53
2023-08-18T09:38:55.433Z,100566.91
2023-08-18T09:41:23.547Z,100567.56
2023-08-18T09:43:51.421Z,100564.34
2023-08-18T09:46:20.235Z,100555.53
2023-08-18T09:48:49.258Z,100557.13
2023-08-18T09:51:23.104Z,100558.34
2023-08-18T09:53:58.243Z,100537.31
2023-08-18T09:56:30.177Z,100555.19
2023-08-18T09:59:06.118Z,100557.50
2023-08-18T10:01:37.448Z,100550.31
2023-08-18T10:04:06.792Z,100549.84
2023-08-18T10:06:40.249Z,100542.22
2023-08-18T10:09:08.409Z,100541.94
2023-08-18T10:11:50.212Z,100526.09
2023-08-18T10:14:22.157Z,100531.56
2023-08-18T10:16:53.783Z,100537.03
2023-08-18T10:19:49.236Z,100539.31
2023-08-18T10:22:19.838Z,100536.66
2023-08-18T10:24:48.661Z,100535.81
2023-08-18T10:27:37.146Z,100534.44
2023-08-18T10:30:26.163Z,100526.31
2023-08-18T10:32:55.424Z,100506.13
2023-08-18T10:35:24.698Z,100529.72
2023-08-18T10:37:55.973Z,100530.03
2023-08-18T10:40:25.445Z,100534.13
2023-08-18T10:42:54.510Z,100521.28
2023-08-18T10:45:27.912Z,100523.16
2023-08-18T10:47:58.872Z,100513.09
2023-08-18T10:50:29.391Z,100509.94
2023-08-18T10:52:59.313Z,100511.31
2023-08-18T10:55:27.529Z,100510.56
2023-08-18T10:57:55.466Z,100514.13
2023-08-18T11:00:23.434Z,100498.97
2023-08-18T11:02:52.833Z,100496.91
2023-08-18T11:05:22.351Z,100489.81
2023-08-18T11:07:51.919Z,100468.28
2023-08-18T11:10:23.151Z,100480.97
2023-08-18T11:12:54.549Z,100477.41
2023-08-18T11:15:25.214Z,100480.06
2023-08-18T11:17:53.193Z,100480.69
2023-08-18T11:20:21.328Z,100473.72
2023-08-18T11:22:52.562Z,100482.88
2023-08-18T11:25:23.958Z,100472.81
2023-08-18T11:27:53.785Z,100473.31
2023-08-18T11:30:22.934Z,100473.09
2023-08-18T11:32:51.228Z,100471.47
2023-08-18T11:35:20.423Z,100468.34
2023-08-18T11:37:50.229Z,100455.41
2023-08-18T11:40:19.808Z,100451.44
2023-08-18T11:42:50.502Z,100446.34
2023-08-18T11:45:19.618Z,100447.66
2023-08-18T11:47:48.901Z,100450.56
2023-08-18T11:50:21.427Z,100450.94
2023-08-18T11:52:53.451Z,100445.84
2023-08-18T11:55:32.768Z,100453.56
2023-08-18T11:58:06.997Z,100450.03
2023-08-18T12:00:37.561Z,100422.34
2023-08-18T12:03:06.613Z,100442.91
2023-08-18T12:05:39.625Z,100450.03
2023-08-18T12:08:10.705Z,100442.81
2023-08-18T12:10:39.636Z,100442.25
2023-08-18T12:13:09.033Z,100433.69
2023-08-18T12:15:36.888Z,100435.50
2023-08-18T12:18:05.136Z,100439.09
2023-08-18T12:20:33.513Z,100417.72
2023-08-18T12:23:01.468Z,100438.13
2023-08-18T12:25:29.354Z,100429.34
2023-08-18T12:27:57.294Z,100420.47
2023-08-18T12:30:27.051Z,100436.34
2023-08-18T12:32:54.816Z,100437.47
2023-08-18T12:35:22.738Z,100424.00
2023-08-18T12:37:50.653Z,100425.78
2023-08-18T12:40:18.675Z,100411.63
2023-08-18T12:42:46.788Z,100426.28
2023-08-18T12:45:15.426Z,100414.59
2023-08-18T12:47:44.772Z,100403.97
2023-08-18T12:50:14.481Z,100408.69
2023-08-18T12:52:43.877Z,100406.06
2023-08-18T12:55:12.209Z,100409.31
2023-08-18T12:57:40.177Z,100408.25
2023-08-18T13:00:10.139Z,100402.31
2023-08-18T13:02:38.015Z,100411.09
2023-08-18T13:05:07.568Z,100407.59
2023-08-18T13:07:35.447Z,100414.28
2023-08-18T13:10:03.341Z,100408.31
2023-08-18T13:12:31.174Z,100376.78
2023-08-18T13:14:58.991Z,100404.25
2023-08-18T13:17:26.866Z,100401.13
2023-08-18T13:19:57.754Z,100405.91
2023-08-18T13:22:27.498Z,100402.19
2023-08-18T13:24:56.062Z,100386.00
2023-08-18T13:27:25.677Z,100383.56
2023-08-18T13:29:54.371Z,100395.63
2023-08-18T13:32:22.469Z,100380.63
2023-08-18T13:34:50.417Z,100389.09
2023-08-18T13:37:18.431Z,100385.03
2023-08-18T13:39:47.713Z,100393.00
2023-08-18T13:42:16.074Z,100391.94
2023-08-18T13:44:43.970Z,100384.75
2023-08-18T13:47:11.778Z,100398.50
2023-08-18T13:49:39.663Z,100371.72
2023-08-18T13:52:08.004Z,100366.34
2023-08-18T13:54:35.886Z,100378.06
2023-08-18T13:57:05.121Z,100383.22
2023-08-18T13:59:32.987Z,100369.13
2023-08-18T14:02:01.811Z,100377.22
2023-08-18T14:04:29.741Z,100369.13
2023-08-18T14:06:58.499Z,100366.22
2023-08-18T14:09:26.418Z,100367.75
2023-08-18T14:11:54.322Z,100369.34
2023-08-18T14:14:23.551Z,100342.66
2023-08-18T14:16:51.535Z,100362.44
2023-08-18T14:19:19.448Z,100358.81
2023-08-18T14:21:47.312Z,100309.34
2023-08-18T14:24:15.132Z,100363.66
2023-08-18T14:26:43.006Z,100353.00
2023-08-18T14:29:15.506Z,100357.16
2023-08-18T14:31:45.822Z,100345.78
2023-08-18T14:34:14.070Z,100354.38
2023-08-18T14:36:41.863Z,100353.50
2023-08-18T14:39:09.856Z,100353.19
2023-08-18T14:41:37.736Z,100346.13
2023-08-18T14:44:06.021Z,100354.63
2023-08-18T14:46:33.982Z,100351.34
2023-08-18T14:49:05.242Z,100342.19
2023-08-18T14:51:33.559Z,100341.19
2023-08-18T14:54:01.470Z,100341.16
2023-08-18T14:56:29.739Z,100346.50
2023-08-18T14:58:57.636Z,100337.72
2023-08-18T15:01:33.025Z,100335.34
2023-08-18T15:04:00.959Z,100332.06
2023-08-18T15:06:30.190Z,100333.94
2023-08-18T15:08:58.086Z,100335.69
2023-08-18T15:11:26.081Z,100327.06
2023-08-18T15:13:53.946Z,100326.22
2023-08-18T15:16:21.947Z,100324.81
2023-08-18T15:18:49.853Z,100318.81
2023-08-18T15:21:17.698Z,100309.88
2023-08-18T15:23:46.983Z,100316.06
2023-08-18T15:26:14.872Z,100308.97
2023-08-18T15:28:42.716Z,100308.47
2023-08-18T15:31:13.336Z,100290.75
2023-08-18T15:33:42.530Z,100303.31
2023-08-18T15:36:11.106Z,100298.66
2023-08-18T15:38:39.172Z,100298.69
2023-08-18T15:41:08.887Z,100302.47
2023-08-18T15:43:36.776Z,100271.84
2023-08-18T15:46:07.234Z,100301.59
2023-08-18T15:48:36.628Z,100302.97
2023-08-18T15:51:04.762Z,100293.34
2023-08-18T15:53:32.739Z,100298.16
2023-08-18T15:56:00.574Z,100294.19
2023-08-18T15:58:30.101Z,100309.00
2023-08-18T16:00:58.796Z,100300.22
2023-08-18T16:03:27.080Z,100297.09
2023-08-18T16:05:54.951Z,100299.50
2023-08-18T16:08:22.725Z,100306.41
2023-08-18T16:10:50.636Z,100304.00
2023-08-18T16:13:18.460Z,100304.00
2023-08-18T16:16:00.241Z,100301.59
2023-08-18T16:18:29.283Z,100299.16
2023-08-18T16:20:58.289Z,100295.91
2023-08-18T16:23:26.406Z,100295.38
2023-08-18T16:25:55.014Z,100298.16
2023-08-18T16:28:22.972Z,100291.94
2023-08-18T16:30:54.040Z,100297.28
2023-08-18T16:33:28.020Z,100286.09
2023-08-18T16:35:55.889Z,100294.53
2023-08-18T16:38:23.701Z,100297.47
2023-08-18T16:40:54.043Z,100296.78
2023-08-18T16:43:24.720Z,100301.41
2023-08-18T16:45:53.869Z,100296.78
2023-08-18T16:48:21.694Z,100299.34
2023-08-18T16:50:49.548Z,100303.16
2023-08-18T16:53:17.342Z,100287.31
2023-08-18T16:55:45.212Z,100287.13
2023-08-18T16:58:13.018Z,100280.59
2023-08-18T17:00:41.957Z,100288.53
2023-08-18T17:03:11.275Z,100290.22
2023-08-18T17:05:39.173Z,100287.31
2023-08-18T17:08:07.664Z,100284.38
2023-08-18T17:10:35.786Z,100285.06
2023-08-18T17:13:06.634Z,100289.72
2023-08-18T17:15:35.576Z,100281.28
2023-08-18T17:18:03.654Z,100268.53
2023-08-18T17:20:32.932Z,100271.84
2023-08-18T17:23:00.793Z,100269.91
2023-08-18T17:25:31.766Z,100269.56
2023-08-18T17:27:59.604Z,100266.47
2023-08-18T17:30:27.435Z,100269.94
2023-08-18T17:32:55.376Z,100273.03
2023-08-18T17:35:23.283Z,100265.97
2023-08-18T17:37:52.448Z,100267.66
2023-08-18T17:40:20.433Z,100273.84
2023-08-18T17:42:49.518Z,100272.97
2023-08-18T17:45:17.341Z,100275.63
2023-08-18T17:47:45.249Z,100270.63
2023-08-18T17:50:13.139Z,100282.22
2023-08-18T17:52:41.090Z,100275.75
2023-08-18T17:55:10.827Z,100281.13
2023-08-18T17:57:38.667Z,100275.53
2023-08-18T18:00:08.009Z,100280.94
2023-08-18T18:02:35.973Z,100275.22
2023-08-18T18:05:03.881Z,100256.97
2023-08-18T18:07:32.085Z,100282.88
2023-08-18T18:10:00.227Z,100287.00
2023-08-18T18:12:29.487Z,100283.94
2023-08-18T18:14:57.274Z,100287.28
2023-08-18T18:17:25.100Z,100291.94
2023-08-18T18:19:53.051Z,100287.09
2023-08-18T18:22:21.019Z,100291.50
2023-08-18T18:24:48.839Z,100293.00
2023-08-18T18:27:16.725Z,100300.88
2023-08-18T18:29:46.121Z,100303.91
2023-08-18T18:32:13.908Z,100308.38
2023-08-18T18:34:41.766Z,100305.00
2023-08-18T18:37:10.323Z,100291.38
2023-08-18T18:39:39.652Z,100299.31
2023-08-18T18:42:07.921Z,100301.94
2023-08-18T18:44:37.156Z,100308.41
2023-08-18T18:47:07.114Z,100305.69
2023-08-18T18:49:34.955Z,100309.59
2023-08-18T18:52:02.787Z,100315.78
2023-08-18T18:54:30.706Z,100308.75
2023-08-18T18:56:58.688Z,100307.44
2023-08-18T18:59:26.675Z,100315.03
2023-08-18T19:01:54.585Z,100330.47
2023-08-18T19:04:23.755Z,100324.13
2023-08-18T19:06:52.822Z,100324.56
2023-08-18T19:09:20.706Z,100331.59
2023-08-18T19:11:50.992Z,100326.25
2023-08-18T19:14:18.942Z,100316.88
2023-08-18T19:16:46.888Z,100329.38
2023-08-18T19:19:18.143Z,100326.78
2023-08-18T19:21:47.629Z,100328.81
2023-08-18T19:24:15.520Z,100295.69
2023-08-18T19:26:47.990Z,100329.53
2023-08-18T19:29:16.328Z,100328.06
2023-08-18T19:31:46.209Z,100329.22
2023-08-18T19:34:15.856Z,100334.19
2023-08-18T19:36:43.751Z,100335.88
2023-08-18T19:39:12.945Z,100340.59
2023-08-18T19:41:40.760Z,100349.47
2023-08-18T19:44:08.629Z,100354.25
2023-08-18T19:46:36.453Z,100357.69
2023-08-18T19:49:04.667Z,100349.44
2023-08-18T19:51:32.588Z,100357.00
2023-08-18T19:54:00.324Z,100344.78
2023-08-18T19:56:29.452Z,100326.03
2023-08-18T19:58:57.365Z,100338.06
2023-08-18T20:01:25.133Z,100354.50
2023-08-18T20:03:53.013Z,100351.31
2023-08-18T20:06:20.900Z,100352.75
2023-08-18T20:08:49.066Z,100348.13
2023-08-18T20:11:16.866Z,100355.03
2023-08-18T20:13:46.074Z,100347.28
2023-08-18T20:16:14.045Z,100347.28
2023-08-18T20:18:42.050Z,100351.78
2023-08-18T20:21:09.889Z,100343.09
2023-08-18T20:23:37.994Z,100349.69
2023-08-18T20:26:06.314Z,100352.13
2023-08-18T20:28:34.170Z,100352.81
2023-08-18T20:31:07.891Z,100352.13
2023-08-18T20:33:36.467Z,100351.09
2023-08-18T20:36:04.930Z,100359.56
2023-08-18T20:38:34.904Z,100361.09
2023-08-18T20:41:09.858Z,100357.03
2023-08-18T20:43:38.051Z,100339.56
2023-08-18T20:46:07.654Z,100356.13
2023-08-18T20:48:35.516Z,100357.25
2023-08-18T20:51:03.349Z,100357.53
2023-08-18T20:53:31.266Z,100354.94
2023-08-18T20:55:59.218Z,100312.91
2023-08-18T20:58:29.144Z,100359.06
2023-08-18T21:00:57.030Z,100351.34
2023-08-18T21:03:26.318Z,100349.00
2023-08-18T21:05:54.255Z,100350.28
2023-08-18T21:08:22.081Z,100347.78
2023-08-18T21:10:50.308Z,100343.00
2023-08-18T21:13:19.954Z,100332.00
2023-08-18T21:15:47.969Z,100344.66
2023-08-18T21:18:15.957Z,100343.66
2023-08-18T21:20:47.017Z,100341.19
2023-08-18T21:23:15.634Z,100331.31
2023-08-18T21:25:45.016Z,100332.31
2023-08-18T21:28:12.840Z,100334.13
2023-08-18T21:30:41.428Z,100338.72
2023-08-18T21:33:09.274Z,100337.00
2023-08-18T21:35:37.153Z,100337.00
2023-08-18T21:38:06.453Z,100333.06
2023-08-18T21:40:34.421Z,100342.94
2023-08-18T21:43:02.498Z,100331.47
2023-08-18T21:45:30.332Z,100336.06
2023-08-18T21:47:58.198Z,100325.66
2023-08-18T21:50:26.019Z,100327.38
2023-08-18T21:52:55.456Z,100330.63
2023-08-18T21:55:24.636Z,100327.16
2023-08-18T21:57:52.518Z,100328.91
2023-08-18T22:00:20.569Z,100325.59
2023-08-18T22:02:48.789Z,100334.72
2023-08-18T22:05:16.956Z,100334.56
2023-08-18T22:07:46.293Z,100327.78
2023-08-18T22:10:15.209Z,100311.44
2023-08-18T22:12:44.516Z,100319.03
2023-08-18T22:15:13.385Z,100328.78
2023-08-18T22:17:42.680Z,100324.22
2023-08-18T22:20:11.437Z,100326.78
2023-08-18T22:22:39.561Z,100332.41
2023-08-18T22:25:08.150Z,100338.59
2023-08-18T22:27:35.963Z,100337.44
2023-08-18T22:30:06.514Z,100331.41
2023-08-18T22:32:34.451Z,100321.09
2023-08-18T22:35:02.845Z,100331.16
2023-08-18T22:37:31.045Z,100325.31
2023-08-18T22:39:58.828Z,100339.56
2023-08-18T22:42:26.708Z,100347.72
2023-08-18T22:44:54.760Z,100346.59
2023-08-18T22:47:27.184Z,100345.38
2023-08-18T22:49:55.153Z,100352.19
2023-08-18T22:52:23.432Z,100348.13
2023-08-18T22:54:51.284Z,100355.91
2023-08-18T22:57:19.128Z,100349.59
2023-08-18T22:59:46.978Z,100351.47
2023-08-18T23:02:14.827Z,100353.59
2023-08-18T23:04:43.969Z,100354.56
2023-08-18T23:07:12.184Z,100347.66
2023-08-18T23:09:40.025Z,100339.97
2023-08-18T23:12:08.456Z,100343.75
2023-08-18T23:14:36.371Z,100353.16
2023-08-18T23:17:04.244Z,100343.03
2023-08-18T23:19:32.155Z,100352.91
2023-08-18T23:22:01.359Z,100353.00
2023-08-18T23:24:29.203Z,100354.38
2023-08-18T23:26:57.055Z,100356.34
2023-08-18T23:29:25.123Z,100353.13
2023-08-18T23:31:52.918Z,100351.25
2023-08-18T23:34:20.838Z,100357.81
2023-08-18T23:36:48.588Z,100344.56
2023-08-18T23:39:17.797Z,100360.28
2023-08-18T23:41:45.737Z,100352.88
2023-08-18T23:44:13.890Z,100349.66
2023-08-18T23:46:41.761Z,100353.72
2023-08-18T23:49:09.694Z,100352.97
2023-08-18T23:51:37.643Z,100343.41
2023-08-18T23:54:06.461Z,100349.09
2023-08-18T23:56:35.689Z,100339.31
2023-08-18T23:59:03.970Z,100335.19
